Milouin — FT9009 — position and weather

sailwx.info

Track history (hours):
 
Tides and Currents Weather Stations Pressure Air Temp Water Temp Dewpoint Dewpoint Depression Visibility Wind Speed Wind Dir Waves Ship Positions

Milouin

Last reported at 2016-Nov-01 23:34 UTC. Time now 2016-Dec-07 22:23 UTC.
Position N 47°12' W 001°46'.
Warning: this ship's position is 35 days out of date.

Length 36 m; draft 2.5 m.

Type: Ship. MMSI: 227003190.

Date/timePositionNaut miles runAvg speedWind from/ knotsBaromVisibWave heightAir tempDewpointWater temp
2016-Nov-01 23:34N 47°12' W 001°46'0 0.0
2016-Nov-01 20:31N 47°12' W 001°46'0 0.0
2016-Nov-01 19:30N 47°12' W 001°46'0 0.0
2016-Nov-01 12:33N 47°12' W 001°46'0 0.0
2016-Nov-01 03:30N 47°12' W 001°46'0 0.0
2016-Nov-01 02:33N 47°12' W 001°46'0 0.0
2016-Nov-01 00:33N 47°12' W 001°46'0 0.0
2016-Oct-31 23:27N 47°12' W 001°46'0 0.0
2016-Oct-31 22:30N 47°12' W 001°46'0 0.0
2016-Oct-31 20:33N 47°12' W 001°46'0 0.0
2016-Oct-31 19:33N 47°12' W 001°46'0 0.0
2016-Oct-31 18:24N 47°12' W 001°46'3 0.6
2016-Oct-31 13:33N 47°14' W 001°50'8 6.1
2016-Oct-31 12:10N 47°17' W 002°01'0 0.0
2016-Oct-31 10:31N 47°17' W 002°01'0 0.0
2016-Oct-31 09:31N 47°17' W 002°01'0 0.0
2016-Oct-31 08:28N 47°17' W 002°01'0 0.0
2016-Oct-31 07:31N 47°17' W 002°01'0 0.0
2016-Oct-31 03:31N 47°17' W 002°01'0 0.0
2016-Oct-30 20:28N 47°17' W 002°01'0 0.0
2016-Oct-30 13:31N 47°17' W 002°01'0 0.0
2016-Oct-30 12:31N 47°17' W 002°01'3 2.7
2016-Oct-30 11:34N 47°18' W 002°05'2 0.7
2016-Oct-30 08:33N 47°18' W 002°02'0 0.1
2016-Oct-30 02:33N 47°17' W 002°01'0 0.0
2016-Oct-30 00:18N 47°17' W 002°01'0 0.0
2016-Oct-29 23:33N 47°17' W 002°01'0 0.0
2016-Oct-29 22:27N 47°17' W 002°01'0 0.0
2016-Oct-29 21:30N 47°17' W 002°01'0 0.0
2016-Oct-29 20:27N 47°17' W 002°01'0 0.0
2016-Oct-29 19:24N 47°17' W 002°01'0 0.0
2016-Oct-29 18:30N 47°17' W 002°01'0 0.0
2016-Oct-29 16:33N 47°17' W 002°01'0 0.0
2016-Oct-29 14:30N 47°17' W 002°01'0 0.0
2016-Oct-29 11:33N 47°17' W 002°01'0 0.0
2016-Oct-29 04:33N 47°17' W 002°01'0 0.0
2016-Oct-29 02:33N 47°17' W 002°01'0 0.0
2016-Oct-28 23:30N 47°17' W 002°01'0 0.0
2016-Oct-28 21:15N 47°17' W 002°01'0 0.0
2016-Oct-28 19:24N 47°17' W 002°01'0 0.0
2016-Oct-28 16:30N 47°17' W 002°01'0 0.0
2016-Oct-28 15:33N 47°17' W 002°01'7 7.1
2016-Oct-28 14:33N 47°15' W 001°51'5 0.9
2016-Oct-28 09:33N 47°12' W 001°46'0 0.0
2016-Oct-28 08:33N 47°12' W 001°46'3 2.9
2016-Oct-28 07:34N 47°14' W 001°50'9 1.2
2016-Oct-28 00:33N 47°17' W 002°01'0 0.0
2016-Oct-27 23:30N 47°17' W 002°01'0 0.0
2016-Oct-27 21:30N 47°17' W 002°01'0 0.0
2016-Oct-27 15:21N 47°17' W 002°01'0 0.0
2016-Oct-27 11:33N 47°17' W 002°01'0 0.0
2016-Oct-27 09:33N 47°17' W 002°01'0 0.0
2016-Oct-27 05:33N 47°17' W 002°01'0 0.0
2016-Oct-27 04:27N 47°17' W 002°01'0 0.0
2016-Oct-27 03:33N 47°17' W 002°01'0 0.0
2016-Oct-27 00:33N 47°17' W 002°01'0 0.0
2016-Oct-26 21:33N 47°17' W 002°01'0 0.0
2016-Oct-26 16:21N 47°17' W 002°01'0 0.0
2016-Oct-26 15:27N 47°17' W 002°01'2 1.7
2016-Oct-26 14:33N 47°18' W 002°03'6 3.0
2016-Oct-26 12:34N 47°16' W 002°12'0 0.0
2016-Oct-26 11:30N 47°16' W 002°12'0 0.0
2016-Oct-26 10:33N 47°16' W 002°12'0 0.0
2016-Oct-26 09:31N 47°16' W 002°12'5 4.8
2016-Oct-26 08:33N 47°18' W 002°06'3 2.3
2016-Oct-26 07:12N 47°17' W 002°01'0 0.0
2016-Oct-25 23:27N 47°17' W 002°01'0 0.0
2016-Oct-25 21:27N 47°17' W 002°01'0 0.0
2016-Oct-25 20:33N 47°17' W 002°01'0 0.0
2016-Oct-25 17:15N 47°17' W 002°01'0 0.0
2016-Oct-25 16:30N 47°17' W 002°01'0 0.0
2016-Oct-25 15:18N 47°17' W 002°01'0 0.2
2016-Oct-25 13:24N 47°17' W 002°02'0 0.3
2016-Oct-25 12:06N 47°17' W 002°01'0 0.0
2016-Oct-25 07:29N 47°17' W 002°01'0 0.0
2016-Oct-25 04:29N 47°17' W 002°01'0 0.0
2016-Oct-25 03:29N 47°17' W 002°01'0 0.0
2016-Oct-25 02:08N 47°17' W 002°01'0 0.0
2016-Oct-24 21:11N 47°17' W 002°01'0 0.0
2016-Oct-24 20:29N 47°17' W 002°01'0 0.0
2016-Oct-24 06:17N 47°17' W 002°01'0 0.0
2016-Oct-24 04:11N 47°17' W 002°01'0 0.0
2016-Oct-24 01:14N 47°17' W 002°01'0 0.0
2016-Oct-23 22:29N 47°17' W 002°01'0 0.0
2016-Oct-23 16:32N 47°17' W 002°01'0 0.0
2016-Oct-23 10:26N 47°17' W 002°01'0 0.0
2016-Oct-23 07:23N 47°17' W 002°01'0 0.0
2016-Oct-23 05:32N 47°17' W 002°01'0 0.0
2016-Oct-23 03:23N 47°17' W 002°01'0 0.0
2016-Oct-23 02:29N 47°17' W 002°01'  
Track history (hours):
 
Tides and Currents Weather Stations Pressure Air Temp Water Temp Dewpoint Dewpoint Depression Visibility Wind Speed Wind Dir Waves Ship Positions

Milouin

Last reported at 2016-Nov-01 23:34 UTC. Time now 2016-Dec-07 22:23 UTC.
Position N 47°12' W 001°46'.
Warning: this ship's position is 35 days out of date.

Length 36 m; draft 2.5 m.

Type: Ship. MMSI: 227003190.

Date/timePositionNaut miles runAvg speedWind from/ knotsBaromVisibWave heightAir tempDewpointWater temp
2016-Nov-01 23:34N 47°12' W 001°46'0 0.0
2016-Nov-01 20:31N 47°12' W 001°46'0 0.0
2016-Nov-01 19:30N 47°12' W 001°46'0 0.0
2016-Nov-01 12:33N 47°12' W 001°46'0 0.0
2016-Nov-01 03:30N 47°12' W 001°46'0 0.0
2016-Nov-01 02:33N 47°12' W 001°46'0 0.0
2016-Nov-01 00:33N 47°12' W 001°46'0 0.0
2016-Oct-31 23:27N 47°12' W 001°46'0 0.0
2016-Oct-31 22:30N 47°12' W 001°46'0 0.0
2016-Oct-31 20:33N 47°12' W 001°46'0 0.0
2016-Oct-31 19:33N 47°12' W 001°46'0 0.0
2016-Oct-31 18:24N 47°12' W 001°46'3 0.6
2016-Oct-31 13:33N 47°14' W 001°50'8 6.1
2016-Oct-31 12:10N 47°17' W 002°01'0 0.0
2016-Oct-31 10:31N 47°17' W 002°01'0 0.0
2016-Oct-31 09:31N 47°17' W 002°01'0 0.0
2016-Oct-31 08:28N 47°17' W 002°01'0 0.0
2016-Oct-31 07:31N 47°17' W 002°01'0 0.0
2016-Oct-31 03:31N 47°17' W 002°01'0 0.0
2016-Oct-30 20:28N 47°17' W 002°01'0 0.0
2016-Oct-30 13:31N 47°17' W 002°01'0 0.0
2016-Oct-30 12:31N 47°17' W 002°01'3 2.7
2016-Oct-30 11:34N 47°18' W 002°05'2 0.7
2016-Oct-30 08:33N 47°18' W 002°02'0 0.1
2016-Oct-30 02:33N 47°17' W 002°01'0 0.0
2016-Oct-30 00:18N 47°17' W 002°01'0 0.0
2016-Oct-29 23:33N 47°17' W 002°01'0 0.0
2016-Oct-29 22:27N 47°17' W 002°01'0 0.0
2016-Oct-29 21:30N 47°17' W 002°01'0 0.0
2016-Oct-29 20:27N 47°17' W 002°01'0 0.0
2016-Oct-29 19:24N 47°17' W 002°01'0 0.0
2016-Oct-29 18:30N 47°17' W 002°01'0 0.0
2016-Oct-29 16:33N 47°17' W 002°01'0 0.0
2016-Oct-29 14:30N 47°17' W 002°01'0 0.0
2016-Oct-29 11:33N 47°17' W 002°01'0 0.0
2016-Oct-29 04:33N 47°17' W 002°01'0 0.0
2016-Oct-29 02:33N 47°17' W 002°01'0 0.0
2016-Oct-28 23:30N 47°17' W 002°01'0 0.0
2016-Oct-28 21:15N 47°17' W 002°01'0 0.0
2016-Oct-28 19:24N 47°17' W 002°01'0 0.0
2016-Oct-28 16:30N 47°17' W 002°01'0 0.0
2016-Oct-28 15:33N 47°17' W 002°01'7 7.1
2016-Oct-28 14:33N 47°15' W 001°51'5 0.9
2016-Oct-28 09:33N 47°12' W 001°46'0 0.0
2016-Oct-28 08:33N 47°12' W 001°46'3 2.9
2016-Oct-28 07:34N 47°14' W 001°50'9 1.2
2016-Oct-28 00:33N 47°17' W 002°01'0 0.0
2016-Oct-27 23:30N 47°17' W 002°01'0 0.0
2016-Oct-27 21:30N 47°17' W 002°01'0 0.0
2016-Oct-27 15:21N 47°17' W 002°01'0 0.0
2016-Oct-27 11:33N 47°17' W 002°01'0 0.0
2016-Oct-27 09:33N 47°17' W 002°01'0 0.0
2016-Oct-27 05:33N 47°17' W 002°01'0 0.0
2016-Oct-27 04:27N 47°17' W 002°01'0 0.0
2016-Oct-27 03:33N 47°17' W 002°01'0 0.0
2016-Oct-27 00:33N 47°17' W 002°01'0 0.0
2016-Oct-26 21:33N 47°17' W 002°01'0 0.0
2016-Oct-26 16:21N 47°17' W 002°01'0 0.0
2016-Oct-26 15:27N 47°17' W 002°01'2 1.7
2016-Oct-26 14:33N 47°18' W 002°03'6 3.0
2016-Oct-26 12:34N 47°16' W 002°12'0 0.0
2016-Oct-26 11:30N 47°16' W 002°12'0 0.0
2016-Oct-26 10:33N 47°16' W 002°12'0 0.0
2016-Oct-26 09:31N 47°16' W 002°12'5 4.8
2016-Oct-26 08:33N 47°18' W 002°06'3 2.3
2016-Oct-26 07:12N 47°17' W 002°01'0 0.0
2016-Oct-25 23:27N 47°17' W 002°01'0 0.0
2016-Oct-25 21:27N 47°17' W 002°01'0 0.0
2016-Oct-25 20:33N 47°17' W 002°01'0 0.0
2016-Oct-25 17:15N 47°17' W 002°01'0 0.0
2016-Oct-25 16:30N 47°17' W 002°01'0 0.0
2016-Oct-25 15:18N 47°17' W 002°01'0 0.2
2016-Oct-25 13:24N 47°17' W 002°02'0 0.3
2016-Oct-25 12:06N 47°17' W 002°01'0 0.0
2016-Oct-25 07:29N 47°17' W 002°01'0 0.0
2016-Oct-25 04:29N 47°17' W 002°01'0 0.0
2016-Oct-25 03:29N 47°17' W 002°01'0 0.0
2016-Oct-25 02:08N 47°17' W 002°01'0 0.0
2016-Oct-24 21:11N 47°17' W 002°01'0 0.0
2016-Oct-24 20:29N 47°17' W 002°01'0 0.0
2016-Oct-24 06:17N 47°17' W 002°01'0 0.0
2016-Oct-24 04:11N 47°17' W 002°01'0 0.0
2016-Oct-24 01:14N 47°17' W 002°01'0 0.0
2016-Oct-23 22:29N 47°17' W 002°01'0 0.0
2016-Oct-23 16:32N 47°17' W 002°01'0 0.0
2016-Oct-23 10:26N 47°17' W 002°01'0 0.0
2016-Oct-23 07:23N 47°17' W 002°01'0 0.0
2016-Oct-23 05:32N 47°17' W 002°01'0 0.0
2016-Oct-23 03:23N 47°17' W 002°01'0 0.0
2016-Oct-23 02:29N 47°17' W 002°01'  

Dump ship's entire track history